createdAt,value
2022-10-09T00:01:25.051Z,100.00
2022-10-09T00:03:55.129Z,100.00
2022-10-09T00:06:25.925Z,100.00
2022-10-09T00:08:53.867Z,100.00
2022-10-09T00:11:24.699Z,100.00
2022-10-09T00:13:53.518Z,100.00
2022-10-09T00:16:22.691Z,100.00
2022-10-09T00:18:51.069Z,100.00
2022-10-09T00:21:22.049Z,100.00
2022-10-09T00:23:52.792Z,100.00
2022-10-09T00:26:22.778Z,100.00
2022-10-09T00:28:51.626Z,100.00
2022-10-09T00:31:21.178Z,100.00
2022-10-09T00:33:53.617Z,100.00
2022-10-09T00:36:25.701Z,100.00
2022-10-09T00:38:56.309Z,100.00
2022-10-09T00:41:27.517Z,100.00
2022-10-09T00:43:57.611Z,100.00
2022-10-09T00:46:37.153Z,100.00
2022-10-09T00:49:16.135Z,100.00
2022-10-09T00:51:48.331Z,100.00
2022-10-09T00:54:22.194Z,100.00
2022-10-09T00:56:50.873Z,100.00
2022-10-09T00:59:22.225Z,100.00
2022-10-09T01:01:52.266Z,100.00
2022-10-09T01:04:20.193Z,100.00
2022-10-09T01:07:04.975Z,100.00
2022-10-09T01:09:39.258Z,100.00
2022-10-09T01:12:17.829Z,100.00
2022-10-09T01:14:51.883Z,100.00
2022-10-09T01:17:26.802Z,100.00
2022-10-09T01:20:23.051Z,100.00
2022-10-09T01:23:07.753Z,100.00
2022-10-09T01:25:44.501Z,100.00
2022-10-09T01:28:20.970Z,100.00
2022-10-09T01:30:49.893Z,100.00
2022-10-09T01:33:20.606Z,100.00
2022-10-09T01:35:49.670Z,100.00
2022-10-09T01:38:18.837Z,100.00
2022-10-09T01:40:46.761Z,100.00
2022-10-09T01:43:15.880Z,100.00
2022-10-09T01:45:47.120Z,100.00
2022-10-09T01:48:19.188Z,100.00
2022-10-09T01:50:52.398Z,100.00
2022-10-09T01:53:27.915Z,100.00
2022-10-09T01:56:00.245Z,100.00
2022-10-09T01:58:34.661Z,100.00
2022-10-09T02:01:08.090Z,100.00
2022-10-09T02:03:40.134Z,100.00
2022-10-09T02:06:14.394Z,100.00
2022-10-09T02:08:45.755Z,100.00
2022-10-09T02:11:18.073Z,100.00
2022-10-09T02:13:50.695Z,100.00
2022-10-09T02:16:34.751Z,100.00
2022-10-09T02:19:09.375Z,100.00
2022-10-09T02:21:46.470Z,100.00
2022-10-09T02:24:21.105Z,100.00
2022-10-09T02:26:49.479Z,100.00
2022-10-09T02:29:21.582Z,100.00
2022-10-09T02:31:52.527Z,100.00
2022-10-09T02:34:22.209Z,100.00
2022-10-09T02:36:50.177Z,100.00
2022-10-09T02:39:18.754Z,100.00
2022-10-09T02:41:46.554Z,100.00
2022-10-09T02:44:14.298Z,100.00
2022-10-09T02:46:43.437Z,100.00
2022-10-09T02:49:11.461Z,100.00
2022-10-09T02:51:41.438Z,100.00
2022-10-09T02:54:12.623Z,100.00
2022-10-09T02:56:40.457Z,100.00
2022-10-09T02:59:08.342Z,100.00
2022-10-09T03:01:39.507Z,100.00
2022-10-09T03:04:08.811Z,100.00
2022-10-09T03:06:39.100Z,100.00
2022-10-09T03:09:06.933Z,100.00
2022-10-09T03:11:34.742Z,100.00
2022-10-09T03:14:02.561Z,100.00
2022-10-09T03:16:34.066Z,100.00
2022-10-09T03:19:01.849Z,100.00
2022-10-09T03:21:31.041Z,100.00
2022-10-09T03:23:59.597Z,100.00
2022-10-09T03:26:29.094Z,100.00
2022-10-09T03:28:57.240Z,100.00
2022-10-09T03:34:15.326Z,100.00
2022-10-09T03:36:46.663Z,100.00
2022-10-09T03:39:16.909Z,100.00
2022-10-09T03:41:44.636Z,100.00
2022-10-09T03:44:12.402Z,100.00
2022-10-09T03:46:40.207Z,100.00
2022-10-09T03:49:08.705Z,100.00
2022-10-09T03:51:38.887Z,100.00
2022-10-09T03:54:09.681Z,100.00
2022-10-09T03:56:37.853Z,100.00
2022-10-09T03:59:07.470Z,100.00
2022-10-09T04:01:35.405Z,100.00
2022-10-09T04:04:05.489Z,100.00
2022-10-09T04:06:35.923Z,100.00
2022-10-09T04:09:03.659Z,100.00
2022-10-09T04:11:32.742Z,100.00
2022-10-09T04:14:00.953Z,100.00
2022-10-09T04:16:28.798Z,100.00
2022-10-09T04:18:59.699Z,100.00
2022-10-09T04:21:29.725Z,100.00
2022-10-09T04:23:57.516Z,100.00
2022-10-09T04:26:25.260Z,100.00
2022-10-09T04:28:55.614Z,100.00
2022-10-09T04:31:23.500Z,100.00
2022-10-09T04:33:55.967Z,100.00
2022-10-09T04:36:23.827Z,100.00
2022-10-09T04:38:53.979Z,100.00
2022-10-09T04:41:25.930Z,100.00
2022-10-09T04:43:57.079Z,100.00
2022-10-09T04:46:25.312Z,100.00
2022-10-09T04:48:53.103Z,100.00
2022-10-09T04:51:20.952Z,100.00
2022-10-09T04:53:48.702Z,100.00
2022-10-09T04:56:18.239Z,100.00
2022-10-09T04:58:47.361Z,100.00
2022-10-09T05:01:19.199Z,100.00
2022-10-09T05:03:47.645Z,100.00
2022-10-09T05:06:16.326Z,100.00
2022-10-09T05:08:44.365Z,100.00
2022-10-09T05:11:14.249Z,100.00
2022-10-09T05:13:44.859Z,100.00
2022-10-09T05:16:15.435Z,100.00
2022-10-09T05:18:45.503Z,100.00
2022-10-09T05:21:13.904Z,100.00
2022-10-09T05:23:41.678Z,100.00
2022-10-09T05:26:12.598Z,100.00
2022-10-09T05:28:40.637Z,100.00
2022-10-09T05:31:10.138Z,100.00
2022-10-09T05:33:38.243Z,100.00
2022-10-09T05:36:07.965Z,100.00
2022-10-09T05:38:35.791Z,100.00
2022-10-09T05:41:05.980Z,100.00
2022-10-09T05:43:35.701Z,100.00
2022-10-09T05:46:08.707Z,100.00
2022-10-09T05:48:36.958Z,100.00
2022-10-09T05:51:14.394Z,100.00
2022-10-09T05:53:43.462Z,100.00
2022-10-09T05:56:16.562Z,100.00
2022-10-09T05:58:45.671Z,100.00
2022-10-09T06:01:13.461Z,100.00
2022-10-09T06:03:41.257Z,100.00
2022-10-09T06:06:09.707Z,100.00
2022-10-09T06:08:39.373Z,100.00
2022-10-09T06:11:14.689Z,100.00
2022-10-09T06:13:43.516Z,100.00
2022-10-09T06:16:13.480Z,100.00
2022-10-09T06:18:46.678Z,100.00
2022-10-09T06:21:17.393Z,100.00
2022-10-09T06:23:50.404Z,100.00
2022-10-09T06:26:18.717Z,100.00
2022-10-09T06:28:47.202Z,100.00
2022-10-09T06:31:16.866Z,100.00
2022-10-09T06:33:46.075Z,100.00
2022-10-09T06:36:15.422Z,100.00
2022-10-09T06:38:43.885Z,100.00
2022-10-09T06:41:14.768Z,100.00
2022-10-09T06:43:43.194Z,100.00
2022-10-09T06:46:13.291Z,100.00
2022-10-09T06:48:41.879Z,100.00
2022-10-09T06:51:11.200Z,100.00
2022-10-09T06:53:40.120Z,100.00
2022-10-09T06:56:10.365Z,100.00
2022-10-09T06:58:41.151Z,100.00
2022-10-09T07:01:10.931Z,100.00
2022-10-09T07:03:40.985Z,100.00
2022-10-09T07:06:10.974Z,100.00
2022-10-09T07:08:39.537Z,100.00
2022-10-09T07:11:12.620Z,100.00
2022-10-09T07:13:42.735Z,100.00
2022-10-09T07:16:20.740Z,100.00
2022-10-09T07:18:48.611Z,100.00
2022-10-09T07:21:17.151Z,100.00
2022-10-09T07:23:45.421Z,100.00
2022-10-09T07:26:15.975Z,100.00
2022-10-09T07:28:46.270Z,100.00
2022-10-09T07:31:14.961Z,100.00
2022-10-09T07:33:42.956Z,100.00
2022-10-09T07:36:11.849Z,100.00
2022-10-09T07:38:39.865Z,100.00
2022-10-09T07:41:09.473Z,100.00
2022-10-09T07:43:38.744Z,100.00
2022-10-09T07:46:09.643Z,100.00
2022-10-09T07:48:37.952Z,100.00
2022-10-09T07:51:13.097Z,100.00
2022-10-09T07:53:41.359Z,100.00
2022-10-09T07:56:14.962Z,100.00
2022-10-09T07:58:42.930Z,100.00
2022-10-09T08:01:16.122Z,100.00
2022-10-09T08:03:47.891Z,100.00
2022-10-09T08:06:16.108Z,100.00
2022-10-09T08:08:45.029Z,100.00
2022-10-09T08:11:16.091Z,100.00
2022-10-09T08:13:45.788Z,100.00
2022-10-09T08:16:15.440Z,100.00
2022-10-09T08:18:43.583Z,100.00
2022-10-09T08:21:14.066Z,100.00
2022-10-09T08:23:42.627Z,100.00
2022-10-09T08:26:14.276Z,100.00
2022-10-09T08:28:42.421Z,100.00
2022-10-09T08:31:17.611Z,100.00
2022-10-09T08:33:47.928Z,100.00
2022-10-09T08:36:16.325Z,100.00
2022-10-09T08:38:47.501Z,100.00
2022-10-09T08:41:28.294Z,100.00
2022-10-09T08:44:02.208Z,100.00
2022-10-09T08:46:41.541Z,100.00
2022-10-09T08:49:19.721Z,100.00
2022-10-09T08:51:47.825Z,100.00
2022-10-09T08:54:23.790Z,100.00
2022-10-09T08:56:53.731Z,100.00
2022-10-09T08:59:22.496Z,100.00
2022-10-09T09:02:04.859Z,100.00
2022-10-09T09:04:56.946Z,100.00
2022-10-09T09:07:34.147Z,100.00
2022-10-09T09:10:10.986Z,100.00
2022-10-09T09:12:49.458Z,100.00
2022-10-09T09:15:31.335Z,100.00
2022-10-09T09:18:15.252Z,100.00
2022-10-09T09:20:53.110Z,100.00
2022-10-09T09:23:31.778Z,100.00
2022-10-09T09:26:00.647Z,98.64
2022-10-09T09:28:31.758Z,99.49
2022-10-09T09:31:07.005Z,99.65
2022-10-09T09:33:44.957Z,98.42
2022-10-09T09:36:19.028Z,98.05
2022-10-09T09:39:12.904Z,97.18
2022-10-09T09:41:35.264Z,96.66
2022-10-09T09:44:05.078Z,94.37
2022-10-09T09:46:40.981Z,93.90
2022-10-09T09:49:27.141Z,91.31
2022-10-09T09:51:58.101Z,92.35
2022-10-09T09:54:28.810Z,92.07
2022-10-09T09:57:18.292Z,92.52
2022-10-09T09:59:47.312Z,89.08
2022-10-09T10:02:19.186Z,88.03
2022-10-09T10:04:54.062Z,88.51
2022-10-09T10:07:32.691Z,89.02
2022-10-09T10:10:06.490Z,88.96
2022-10-09T10:12:41.174Z,88.51
2022-10-09T10:15:19.049Z,88.46
2022-10-09T10:17:48.639Z,86.31
2022-10-09T10:20:18.964Z,86.73
2022-10-09T10:22:53.301Z,85.84
2022-10-09T10:25:23.027Z,84.65
2022-10-09T10:27:54.717Z,84.46
2022-10-09T10:30:22.707Z,84.10
2022-10-09T10:32:56.797Z,83.41
2022-10-09T10:35:29.339Z,82.44
2022-10-09T10:38:05.564Z,80.71
2022-10-09T10:40:38.567Z,80.79
2022-10-09T10:43:17.222Z,80.44
2022-10-09T10:45:59.192Z,79.21
2022-10-09T10:48:30.347Z,78.91
2022-10-09T10:51:19.776Z,79.33
2022-10-09T10:54:03.027Z,79.09
2022-10-09T10:56:38.697Z,77.72
2022-10-09T10:59:20.359Z,71.98
2022-10-09T11:02:00.030Z,70.16
2022-10-09T11:04:44.566Z,71.71
2022-10-09T11:07:28.181Z,73.36
2022-10-09T11:10:03.647Z,72.72
2022-10-09T11:12:48.280Z,71.26
2022-10-09T11:15:28.611Z,69.67
2022-10-09T11:18:29.209Z,70.54
2022-10-09T11:21:16.510Z,72.12
2022-10-09T11:23:57.001Z,67.58
2022-10-09T11:26:32.898Z,67.83
2022-10-09T11:29:08.337Z,66.80
2022-10-09T11:31:43.434Z,67.86
2022-10-09T11:34:17.257Z,63.93
2022-10-09T11:36:46.634Z,64.48
2022-10-09T11:39:23.368Z,63.87
2022-10-09T11:41:54.352Z,64.28
2022-10-09T11:44:44.850Z,62.57
2022-10-09T11:47:21.797Z,62.09
2022-10-09T11:50:09.985Z,61.03
2022-10-09T11:52:47.611Z,59.90
2022-10-09T11:55:22.692Z,61.98
2022-10-09T11:57:51.360Z,61.50
2022-10-09T12:00:30.793Z,62.08
2022-10-09T12:03:02.387Z,62.82
2022-10-09T12:05:40.891Z,60.51
2022-10-09T12:08:19.498Z,51.52
2022-10-09T12:10:56.421Z,45.89
2022-10-09T12:13:42.718Z,44.84
2022-10-09T12:16:29.486Z,41.89
2022-10-09T12:18:59.957Z,42.46
2022-10-09T12:21:39.366Z,50.58
2022-10-09T12:24:08.692Z,44.36
2022-10-09T12:26:38.130Z,53.72
2022-10-09T12:29:07.397Z,57.96
2022-10-09T12:31:41.251Z,48.35
2022-10-09T12:34:25.213Z,45.01
2022-10-09T12:37:06.148Z,42.36
2022-10-09T12:39:34.251Z,40.89
2022-10-09T12:42:04.759Z,44.28
2022-10-09T12:44:37.370Z,46.80
2022-10-09T12:47:09.930Z,51.65
2022-10-09T12:49:42.788Z,56.22
2022-10-09T12:52:17.957Z,55.18
2022-10-09T12:54:48.031Z,48.87
2022-10-09T12:57:18.632Z,46.19
2022-10-09T12:59:49.811Z,52.79
2022-10-09T13:02:18.941Z,54.00
2022-10-09T13:05:04.015Z,52.92
2022-10-09T13:07:35.906Z,51.85
2022-10-09T13:10:09.262Z,53.76
2022-10-09T13:12:55.551Z,58.88
2022-10-09T13:15:35.926Z,57.63
2022-10-09T13:18:32.482Z,59.15
2022-10-09T13:21:06.315Z,60.85
2022-10-09T13:23:38.361Z,72.02
2022-10-09T13:26:23.233Z,59.73
2022-10-09T13:28:52.442Z,59.14
2022-10-09T13:31:20.842Z,58.69
2022-10-09T13:33:49.678Z,55.51
2022-10-09T13:36:21.769Z,54.24
2022-10-09T13:38:50.217Z,55.18
2022-10-09T13:41:26.305Z,57.55
2022-10-09T13:43:55.707Z,59.80
2022-10-09T13:46:26.022Z,60.46
2022-10-09T13:48:58.673Z,60.35
2022-10-09T13:51:32.872Z,59.04
2022-10-09T13:54:00.916Z,57.07
2022-10-09T13:56:33.245Z,57.00
2022-10-09T13:59:17.038Z,58.00
2022-10-09T14:01:45.316Z,58.89
2022-10-09T14:04:16.454Z,57.41
2022-10-09T14:06:49.696Z,59.26
2022-10-09T14:09:31.950Z,60.54
2022-10-09T14:12:00.247Z,57.70
2022-10-09T14:14:29.881Z,58.11
2022-10-09T14:16:57.919Z,57.96
2022-10-09T14:19:27.958Z,59.52
2022-10-09T14:22:22.461Z,59.41
2022-10-09T14:24:54.026Z,58.97
2022-10-09T14:27:23.448Z,59.16
2022-10-09T14:29:56.720Z,59.46
2022-10-09T14:32:29.336Z,58.63
2022-10-09T14:34:57.448Z,57.05
2022-10-09T14:37:42.518Z,57.06
2022-10-09T14:40:11.564Z,58.16
2022-10-09T14:42:40.837Z,57.75
2022-10-09T14:45:15.557Z,56.74
2022-10-09T14:47:43.471Z,56.73
2022-10-09T14:50:11.753Z,56.44
2022-10-09T14:52:39.952Z,58.19
2022-10-09T14:55:08.957Z,58.92
2022-10-09T14:57:36.891Z,59.42
2022-10-09T15:00:06.263Z,60.21
2022-10-09T15:02:35.633Z,61.03
2022-10-09T15:05:03.879Z,61.44
2022-10-09T15:07:33.643Z,60.83
2022-10-09T15:10:01.478Z,61.52
2022-10-09T15:12:30.694Z,62.47
2022-10-09T15:15:00.918Z,62.21
2022-10-09T15:17:28.784Z,62.55
2022-10-09T15:19:58.099Z,63.50
2022-10-09T15:22:26.063Z,63.84
2022-10-09T15:24:55.689Z,64.29
2022-10-09T15:27:23.960Z,64.90
2022-10-09T15:29:56.166Z,64.93
2022-10-09T15:32:25.604Z,65.97
2022-10-09T15:34:55.128Z,66.16
2022-10-09T15:37:24.675Z,66.69
2022-10-09T15:39:54.029Z,67.30
2022-10-09T15:42:24.859Z,67.91
2022-10-09T15:44:53.129Z,68.10
2022-10-09T15:47:39.285Z,68.78
2022-10-09T15:50:16.867Z,69.08
2022-10-09T15:52:46.547Z,70.37
2022-10-09T15:55:14.621Z,69.83
2022-10-09T15:57:42.870Z,70.47
2022-10-09T16:00:12.048Z,72.86
2022-10-09T16:02:42.914Z,74.13
2022-10-09T16:05:11.300Z,74.44
2022-10-09T16:07:41.912Z,75.20
2022-10-09T16:10:13.130Z,76.82
2022-10-09T16:12:41.056Z,76.40
2022-10-09T16:15:12.722Z,77.56
2022-10-09T16:17:51.648Z,77.81
2022-10-09T16:20:22.636Z,78.06
2022-10-09T16:22:51.082Z,78.66
2022-10-09T16:25:20.745Z,79.26
2022-10-09T16:27:48.715Z,80.77
2022-10-09T16:30:17.399Z,80.97
2022-10-09T16:32:48.690Z,81.56
2022-10-09T16:35:17.206Z,82.30
2022-10-09T16:37:45.617Z,83.36
2022-10-09T16:40:17.057Z,80.74
2022-10-09T16:42:46.834Z,84.15
2022-10-09T16:45:15.316Z,83.73
2022-10-09T16:47:44.355Z,84.42
2022-10-09T16:50:13.071Z,84.59
2022-10-09T16:52:41.308Z,82.70
2022-10-09T16:55:09.970Z,84.20
2022-10-09T16:57:37.839Z,86.11
2022-10-09T17:00:16.045Z,87.36
2022-10-09T17:02:46.090Z,88.30
2022-10-09T17:05:14.021Z,88.53
2022-10-09T17:07:42.131Z,88.52
2022-10-09T17:10:13.799Z,88.87
2022-10-09T17:12:42.296Z,88.12
2022-10-09T17:15:15.108Z,88.71
2022-10-09T17:17:51.060Z,88.89
2022-10-09T17:20:22.568Z,89.79
2022-10-09T17:22:51.114Z,89.59
2022-10-09T17:25:19.448Z,89.75
2022-10-09T17:27:47.594Z,89.78
2022-10-09T17:30:16.937Z,90.25
2022-10-09T17:32:47.566Z,90.78
2022-10-09T17:35:16.029Z,91.00
2022-10-09T17:37:44.081Z,90.77
2022-10-09T17:40:14.530Z,91.80
2022-10-09T17:42:42.560Z,93.76
2022-10-09T17:45:10.838Z,93.60
2022-10-09T17:47:40.158Z,94.61
2022-10-09T17:50:09.590Z,94.47
2022-10-09T17:52:37.682Z,93.39
2022-10-09T17:55:06.978Z,93.29
2022-10-09T17:57:35.435Z,94.58
2022-10-09T18:00:03.403Z,93.86
2022-10-09T18:02:32.833Z,95.59
2022-10-09T18:05:11.797Z,95.66
2022-10-09T18:07:39.891Z,96.00
2022-10-09T18:10:08.777Z,96.12
2022-10-09T18:12:37.165Z,96.24
2022-10-09T18:15:05.924Z,95.68
2022-10-09T18:17:34.427Z,95.03
2022-10-09T18:20:02.501Z,95.26
2022-10-09T18:22:41.514Z,94.24
2022-10-09T18:25:09.496Z,94.94
2022-10-09T18:27:37.588Z,94.44
2022-10-09T18:30:06.382Z,94.15
2022-10-09T18:32:36.674Z,95.54
2022-10-09T18:35:07.153Z,95.46
2022-10-09T18:37:39.141Z,96.30
2022-10-09T18:40:08.883Z,95.75
2022-10-09T18:42:36.887Z,97.16
2022-10-09T18:45:05.492Z,97.51
2022-10-09T18:47:35.983Z,97.37
2022-10-09T18:50:14.841Z,96.82
2022-10-09T18:52:48.447Z,96.28
2022-10-09T18:55:19.875Z,97.50
2022-10-09T18:57:48.549Z,98.05
2022-10-09T19:00:16.919Z,98.33
2022-10-09T19:02:45.340Z,97.98
2022-10-09T19:05:15.815Z,99.23
2022-10-09T19:07:48.440Z,99.11
2022-10-09T19:10:20.116Z,98.19
2022-10-09T19:12:50.594Z,98.93
2022-10-09T19:15:20.252Z,98.88
2022-10-09T19:17:51.614Z,99.24
2022-10-09T19:20:19.962Z,100.00
2022-10-09T19:22:50.871Z,100.00
2022-10-09T19:25:21.774Z,98.78
2022-10-09T19:27:50.027Z,98.13
2022-10-09T19:30:18.590Z,98.52
2022-10-09T19:32:48.860Z,98.82
2022-10-09T19:35:19.959Z,99.89
2022-10-09T19:37:49.807Z,100.00
2022-10-09T19:40:19.794Z,99.71
2022-10-09T19:42:48.473Z,100.00
2022-10-09T19:45:16.766Z,99.47
2022-10-09T19:47:44.800Z,100.00
2022-10-09T19:50:15.032Z,100.00
2022-10-09T19:52:47.400Z,100.00
2022-10-09T19:55:17.175Z,100.00
2022-10-09T19:57:45.387Z,100.00
2022-10-09T20:00:14.260Z,100.00
2022-10-09T20:02:42.208Z,99.96
2022-10-09T20:05:10.694Z,99.16
2022-10-09T20:07:39.328Z,99.21
2022-10-09T20:10:08.322Z,98.67
2022-10-09T20:12:39.740Z,98.51
2022-10-09T20:15:09.075Z,99.81
2022-10-09T20:17:37.112Z,100.00
2022-10-09T20:20:05.570Z,100.00
2022-10-09T20:22:33.770Z,99.67
2022-10-09T20:25:01.636Z,99.92
2022-10-09T20:27:31.933Z,99.36
2022-10-09T20:30:03.579Z,100.00
2022-10-09T20:32:33.619Z,100.00
2022-10-09T20:35:02.499Z,100.00
2022-10-09T20:37:33.364Z,100.00
2022-10-09T20:40:01.790Z,100.00
2022-10-09T20:42:29.940Z,100.00
2022-10-09T20:44:57.794Z,99.83
2022-10-09T20:47:32.029Z,100.00
2022-10-09T20:49:59.989Z,100.00
2022-10-09T20:52:30.974Z,100.00
2022-10-09T20:55:00.420Z,100.00
2022-10-09T20:57:28.414Z,100.00
2022-10-09T20:59:56.366Z,100.00
2022-10-09T21:02:25.396Z,100.00
2022-10-09T21:04:57.791Z,100.00
2022-10-09T21:07:36.891Z,100.00
2022-10-09T21:10:20.025Z,100.00
2022-10-09T21:12:48.978Z,100.00
2022-10-09T21:15:27.173Z,100.00
2022-10-09T21:17:55.452Z,100.00
2022-10-09T21:20:32.076Z,100.00
2022-10-09T21:23:05.774Z,100.00
2022-10-09T21:25:37.859Z,100.00
2022-10-09T21:28:06.344Z,100.00
2022-10-09T21:30:41.559Z,100.00
2022-10-09T21:33:10.232Z,100.00
2022-10-09T21:35:47.061Z,100.00
2022-10-09T21:38:19.171Z,100.00
2022-10-09T21:40:51.278Z,100.00
2022-10-09T21:43:21.183Z,100.00
2022-10-09T21:45:51.876Z,100.00
2022-10-09T21:48:19.794Z,100.00
2022-10-09T21:50:51.449Z,100.00
2022-10-09T21:53:19.213Z,100.00
2022-10-09T21:55:46.974Z,100.00
2022-10-09T21:58:15.923Z,100.00
2022-10-09T22:00:44.425Z,100.00
2022-10-09T22:03:14.383Z,100.00
2022-10-09T22:05:42.115Z,100.00
2022-10-09T22:08:13.409Z,100.00
2022-10-09T22:10:42.310Z,100.00
2022-10-09T22:13:10.112Z,100.00
2022-10-09T22:15:41.341Z,100.00
2022-10-09T22:18:09.269Z,100.00
2022-10-09T22:20:41.632Z,100.00
2022-10-09T22:23:13.076Z,100.00
2022-10-09T22:25:43.956Z,100.00
2022-10-09T22:28:11.805Z,100.00
2022-10-09T22:30:39.539Z,100.00
2022-10-09T22:33:08.309Z,100.00
2022-10-09T22:35:49.904Z,100.00
2022-10-09T22:38:19.054Z,100.00
2022-10-09T22:41:04.525Z,100.00
2022-10-09T22:43:34.966Z,100.00
2022-10-09T22:46:10.794Z,100.00
2022-10-09T22:48:44.968Z,100.00
2022-10-09T22:51:14.242Z,100.00
2022-10-09T22:53:47.498Z,100.00
2022-10-09T22:56:17.036Z,100.00
2022-10-09T22:58:47.155Z,100.00
2022-10-09T23:01:17.215Z,100.00
2022-10-09T23:03:45.785Z,100.00
2022-10-09T23:06:15.799Z,100.00
2022-10-09T23:08:49.804Z,100.00
2022-10-09T23:11:20.776Z,100.00
2022-10-09T23:13:53.128Z,100.00
2022-10-09T23:16:21.335Z,100.00
2022-10-09T23:18:49.192Z,100.00
2022-10-09T23:21:23.579Z,100.00
2022-10-09T23:23:52.946Z,100.00
2022-10-09T23:26:40.723Z,100.00
2022-10-09T23:29:13.645Z,100.00
2022-10-09T23:31:41.488Z,100.00
2022-10-09T23:34:09.338Z,100.00
2022-10-09T23:36:40.833Z,100.00
2022-10-09T23:39:12.796Z,100.00
2022-10-09T23:41:47.540Z,100.00
2022-10-09T23:44:17.802Z,100.00
2022-10-09T23:46:49.081Z,100.00
2022-10-09T23:49:19.235Z,100.00
2022-10-09T23:51:49.526Z,100.00
2022-10-09T23:54:18.620Z,100.00
2022-10-09T23:56:46.379Z,100.00
2022-10-09T23:59:14.155Z,100.00
